Meteo Giornale » Osservazioni meteo Stati Uniti (USA) » Charlottesville-Albemarle
ore: 18:17 - Osservazioni Meteo Charlottesville-Albemarle
Lat. 38° 8' N Lon. 78° 27' W Alt. 195 metri s.l.m.
25 °C
Pioggia Foschia
Temp. 24 Ore
20 °C
32 °C
Nord
5.5 Km/h
Dew point 24 °C
Umidità 94 %
Visibilità 3 Km
Il sole sorge alle ore 06:42
Il sole tramonta alle ore 19:45
| Data e Ora | Cielo e Fenomeni | T °C | DP °C | Um. % | Pres. hPa | Vis. km | Vento km/h | |
|---|---|---|---|---|---|---|---|---|
| Oggi h: 18:17 | Pioggia Foschia | 25 | 24 | 94 | 1019 | 3 | N 5.5 | |
| Oggi h: 18:02 | Temporale Foschia | 26 | 24 | 88 | 1019 | 2 | O/NO 11.1 | |
| Oggi h: 17:53 | Pioggia Foschia | 26 | 24 | 88 | 1019 | 8 | O/NO 9.3 | |
| Oggi h: 16:53 | Molto Nuvoloso | 28 | 22 | 69 | 1018 | 10 | N 5.5 | |
| Oggi h: 15:53 | Sereno | 30 | 21 | 58 | 1018 | 10 | N 0 | |
| Oggi h: 14:53 | Sereno | 32 | 20 | 49 | 1019 | 10 | E/NE 7.4 | |
| Oggi h: 13:53 | Sereno | 31 | 20 | 52 | 1019 | 10 | N/NE 7.4 | |
| Oggi h: 12:53 | Nuvoloso | 30 | 21 | 58 | 1020 | 10 | N 0 | |
| Oggi h: 11:53 | Sereno | 29 | 21 | 62 | 1020 | 10 | N 5.5 | |
| Oggi h: 10:53 | Sereno | 28 | 22 | 69 | 1020 | 10 | N 5.5 | |
| Oggi h: 09:53 | Sereno | 26 | 22 | 78 | 1020 | 10 | E 9.3 | |
| Oggi h: 08:53 | Sereno | 24 | 22 | 88 | 1020 | 10 | N 5.5 | |
| Oggi h: 07:53 | Coperto | 21 | 21 | 100 | 1020 | 13 | N 0 | |
| Oggi h: 06:53 | Sereno | 21 | 21 | 100 | 1019 | 10 | N 0 | |
| Oggi h: 05:53 | Poco Nuvoloso | 21 | 21 | 100 | 1019 | 13 | N 0 | |
| Oggi h: 04:53 | Foschia | 21 | 21 | 100 | 1019 | 6 | N 5.5 | |
| Oggi h: 04:51 | Foschia | 21 | 21 | 100 | 1019 | 5 | N 0 | |
| Oggi h: 04:42 | Foschia | 21 | 21 | 100 | 1019 | 2 | N 0 | |
| Oggi h: 04:30 | Foschia | 20 | 20 | 100 | 1019 | 5 | N 0 | |
| Oggi h: 04:12 | Foschia | 21 | 21 | 100 | 1019 | 2 | N 0 | |
| Oggi h: 04:03 | Foschia | 21 | 21 | 100 | 1019 | 5 | N 0 | |
| Oggi h: 03:53 | Sereno | 21 | 21 | 100 | 1019 | 11 | N 0 | |
| Oggi h: 02:55 | Foschia | 21 | 21 | 100 | 1019 | 5 | N 5.5 | |
| Oggi h: 02:53 | Foschia | 21 | 21 | 100 | 1019 | 5 | N 5.5 | |
| Oggi h: 02:50 | Foschia | 21 | 21 | 100 | 1019 | 2 | N 5.5 | |
| Oggi h: 02:42 | Foschia | 21 | 21 | 100 | 1019 | 5 | N 0 | |
| Oggi h: 02:34 | Foschia | 21 | 21 | 100 | 1019 | 2 | N 0 | |
| Oggi h: 02:32 | Foschia | 21 | 21 | 100 | 1019 | 2 | N 0 | |
| Oggi h: 01:53 | Sereno | 22 | 21 | 94 | 1019 | 14 | N 0 | |
| Oggi h: 00:53 | Sereno | 22 | 22 | 100 | 1019 | 11 | N 0 | |
| Oggi h: 00:29 | Foschia | 22 | 22 | 100 | 1019 | 5 | N 0 | |
| Oggi h: 00:04 | Foschia | 22 | 22 | 100 | 1019 | 5 | N 0 | |
| Ieri h: 23:53 | Sereno | 22 | 22 | 100 | 1020 | 14 | N 0 | |
| Ieri h: 22:53 | Poco Nuvoloso | 22 | 22 | 100 | 1020 | 10 | NE 7.4 | |
| Ieri h: 21:53 | Poco Nuvoloso | 23 | 22 | 94 | 1020 | 14 | N 5.5 | |
| Ieri h: 20:53 | Coperto | 23 | 23 | 100 | 1020 | 13 | N 0 | |
| Ieri h: 19:53 | Coperto | 24 | 23 | 94 | 1019 | 10 | N 0 | |
| Ieri h: 19:35 | Pioggia | 24 | 23 | 94 | 1019 | 11 | N 0 | |
| Ieri h: 19:27 | Pioggia | 27 | 22 | 74 | 1019 | 5 | N 9.3 | |
| Ieri h: 18:53 | Nuvoloso | 28 | 21 | 65 | 1019 | 10 | S 7.4 | |



